sensor_id;sensor_type;location;lat;lon;timestamp;pressure;altitude;pressure_sealevel;temperature;humidity
64388;BME280;50709;52.648;4.764;2023-02-14T00:02:17;103560.81;;;11.39;70.30
64388;BME280;50709;52.648;4.764;2023-02-14T00:04:42;103571.47;;;11.43;69.70
64388;BME280;50709;52.648;4.764;2023-02-14T00:07:10;103557.94;;;11.33;68.25
64388;BME280;50709;52.648;4.764;2023-02-14T00:09:35;103552.91;;;11.37;69.19
64388;BME280;50709;52.648;4.764;2023-02-14T00:12:01;103570.97;;;11.11;68.53
64388;BME280;50709;52.648;4.764;2023-02-14T00:14:27;103552.72;;;10.53;69.88
64388;BME280;50709;52.648;4.764;2023-02-14T00:17:14;103540.03;;;10.42;71.46
64388;BME280;50709;52.648;4.764;2023-02-14T00:19:39;103553.78;;;10.58;71.65
64388;BME280;50709;52.648;4.764;2023-02-14T00:22:05;103552.16;;;10.60;72.05
64388;BME280;50709;52.648;4.764;2023-02-14T00:24:31;103546.44;;;10.49;71.65
64388;BME280;50709;52.648;4.764;2023-02-14T00:26:56;103556.06;;;10.50;71.42
64388;BME280;50709;52.648;4.764;2023-02-14T00:29:28;103541.59;;;10.39;71.86
64388;BME280;50709;52.648;4.764;2023-02-14T00:31:54;103549.81;;;10.47;71.79
64388;BME280;50709;52.648;4.764;2023-02-14T00:34:19;103522.50;;;10.40;72.12
64388;BME280;50709;52.648;4.764;2023-02-14T00:36:45;103500.69;;;10.02;71.83
64388;BME280;50709;52.648;4.764;2023-02-14T00:39:12;103552.50;;;10.30;72.35
64388;BME280;50709;52.648;4.764;2023-02-14T00:41:39;103541.75;;;10.24;72.27
64388;BME280;50709;52.648;4.764;2023-02-14T00:44:05;103544.59;;;10.29;73.06
64388;BME280;50709;52.648;4.764;2023-02-14T00:46:31;103545.56;;;10.31;72.86
64388;BME280;50709;52.648;4.764;2023-02-14T00:48:56;103527.50;;;10.17;72.47
64388;BME280;50709;52.648;4.764;2023-02-14T00:51:22;103525.53;;;10.12;72.70
64388;BME280;50709;52.648;4.764;2023-02-14T00:53:48;103538.38;;;9.89;72.64
64388;BME280;50709;52.648;4.764;2023-02-14T00:56:15;103525.91;;;10.01;73.20
64388;BME280;50709;52.648;4.764;2023-02-14T00:58:41;103528.38;;;9.98;72.96
64388;BME280;50709;52.648;4.764;2023-02-14T01:01:07;103510.63;;;9.91;73.00
64388;BME280;50709;52.648;4.764;2023-02-14T01:03:34;103531.59;;;9.74;72.83
64388;BME280;50709;52.648;4.764;2023-02-14T01:06:00;103499.88;;;9.85;72.97
64388;BME280;50709;52.648;4.764;2023-02-14T01:08:25;103526.44;;;9.94;72.55
64388;BME280;50709;52.648;4.764;2023-02-14T01:10:51;103511.81;;;9.80;73.04
64388;BME280;50709;52.648;4.764;2023-02-14T01:13:16;103518.03;;;9.82;72.75
64388;BME280;50709;52.648;4.764;2023-02-14T01:15:45;103490.66;;;9.37;70.92
64388;BME280;50709;52.648;4.764;2023-02-14T01:18:11;103527.09;;;9.90;72.63
64388;BME280;50709;52.648;4.764;2023-02-14T01:20:37;103531.22;;;10.03;73.17
64388;BME280;50709;52.648;4.764;2023-02-14T01:23:02;103527.66;;;9.83;72.57
64388;BME280;50709;52.648;4.764;2023-02-14T01:25:28;103521.50;;;9.82;73.05
64388;BME280;50709;52.648;4.764;2023-02-14T01:27:54;103517.41;;;9.87;72.46
64388;BME280;50709;52.648;4.764;2023-02-14T01:30:19;103523.69;;;9.91;72.23
64388;BME280;50709;52.648;4.764;2023-02-14T01:32:45;103528.66;;;9.86;71.95
64388;BME280;50709;52.648;4.764;2023-02-14T01:35:10;103514.81;;;9.87;72.07
64388;BME280;50709;52.648;4.764;2023-02-14T01:37:36;103481.19;;;9.57;72.33
64388;BME280;50709;52.648;4.764;2023-02-14T01:40:03;103512.13;;;9.86;72.04
64388;BME280;50709;52.648;4.764;2023-02-14T01:42:29;103522.56;;;9.86;72.76
64388;BME280;50709;52.648;4.764;2023-02-14T01:45:06;103521.50;;;9.82;72.77
64388;BME280;50709;52.648;4.764;2023-02-14T01:47:37;103519.88;;;9.66;72.81
64388;BME280;50709;52.648;4.764;2023-02-14T01:50:13;103519.13;;;9.69;72.19
64388;BME280;50709;52.648;4.764;2023-02-14T01:52:46;103476.56;;;9.52;72.43
64388;BME280;50709;52.648;4.764;2023-02-14T01:55:19;103512.56;;;9.77;71.81
64388;BME280;50709;52.648;4.764;2023-02-14T01:57:50;103495.81;;;9.72;72.73
64388;BME280;50709;52.648;4.764;2023-02-14T02:00:17;103501.09;;;9.73;72.34
64388;BME280;50709;52.648;4.764;2023-02-14T02:03:02;103489.69;;;9.71;72.48
64388;BME280;50709;52.648;4.764;2023-02-14T02:05:29;103507.44;;;9.79;72.10
64388;BME280;50709;52.648;4.764;2023-02-14T02:07:57;103483.78;;;9.75;72.44
64388;BME280;50709;52.648;4.764;2023-02-14T02:10:23;103504.16;;;9.83;72.98
64388;BME280;50709;52.648;4.764;2023-02-14T02:12:50;103503.91;;;9.96;71.98
64388;BME280;50709;52.648;4.764;2023-02-14T02:15:16;103498.28;;;10.06;71.30
64388;BME280;50709;52.648;4.764;2023-02-14T02:18:07;103501.31;;;9.78;70.82
64388;BME280;50709;52.648;4.764;2023-02-14T02:20:44;103504.81;;;9.60;72.02
64388;BME280;50709;52.648;4.764;2023-02-14T02:26:09;103458.75;;;9.25;72.43
64388;BME280;50709;52.648;4.764;2023-02-14T02:41:04;103505.47;;;9.38;72.43
64388;BME280;50709;52.648;4.764;2023-02-14T02:46:54;103503.75;;;9.21;72.36
64388;BME280;50709;52.648;4.764;2023-02-14T02:52:26;103502.63;;;9.34;73.13
64388;BME280;50709;52.648;4.764;2023-02-14T02:55:19;103501.41;;;9.43;73.12
64388;BME280;50709;52.648;4.764;2023-02-14T02:57:48;103501.88;;;9.36;72.58
64388;BME280;50709;52.648;4.764;2023-02-14T03:00:17;103489.91;;;9.40;72.35
64388;BME280;50709;52.648;4.764;2023-02-14T03:02:47;103503.38;;;9.31;71.84
64388;BME280;50709;52.648;4.764;2023-02-14T03:05:34;103506.00;;;9.49;71.90
64388;BME280;50709;52.648;4.764;2023-02-14T03:08:01;103499.47;;;9.39;71.92
64388;BME280;50709;52.648;4.764;2023-02-14T03:10:31;103489.47;;;8.96;71.80
64388;BME280;50709;52.648;4.764;2023-02-14T03:15:50;103499.69;;;9.09;73.38
64388;BME280;50709;52.648;4.764;2023-02-14T03:23:33;103507.72;;;8.80;73.37
64388;BME280;50709;52.648;4.764;2023-02-14T03:26:23;103506.31;;;8.86;73.09
64388;BME280;50709;52.648;4.764;2023-02-14T03:32:01;103502.66;;;8.66;72.60
64388;BME280;50709;52.648;4.764;2023-02-14T03:34:42;103489.25;;;8.58;74.44
64388;BME280;50709;52.648;4.764;2023-02-14T03:37:16;103486.91;;;8.47;73.26
64388;BME280;50709;52.648;4.764;2023-02-14T03:39:51;103450.16;;;8.25;73.98
64388;BME280;50709;52.648;4.764;2023-02-14T03:42:24;103493.25;;;8.52;74.03
64388;BME280;50709;52.648;4.764;2023-02-14T03:44:51;103471.41;;;8.33;73.49
64388;BME280;50709;52.648;4.764;2023-02-14T03:47:22;103483.75;;;8.04;74.49
64388;BME280;50709;52.648;4.764;2023-02-14T03:50:09;103461.94;;;8.19;74.13
64388;BME280;50709;52.648;4.764;2023-02-14T03:52:36;103456.91;;;8.22;74.03
64388;BME280;50709;52.648;4.764;2023-02-14T03:55:06;103472.91;;;8.13;73.82
64388;BME280;50709;52.648;4.764;2023-02-14T04:00:13;103471.97;;;8.28;73.24
64388;BME280;50709;52.648;4.764;2023-02-14T04:02:42;103484.56;;;8.20;74.12
64388;BME280;50709;52.648;4.764;2023-02-14T04:05:16;103485.50;;;8.05;75.26
64388;BME280;50709;52.648;4.764;2023-02-14T04:07:52;103487.16;;;8.03;74.63
64388;BME280;50709;52.648;4.764;2023-02-14T04:10:19;103484.22;;;8.14;74.25
64388;BME280;50709;52.648;4.764;2023-02-14T04:12:45;103489.03;;;8.22;75.12
64388;BME280;50709;52.648;4.764;2023-02-14T04:15:11;103477.81;;;8.23;75.10
64388;BME280;50709;52.648;4.764;2023-02-14T04:17:37;103461.63;;;8.13;75.12
64388;BME280;50709;52.648;4.764;2023-02-14T04:20:22;103479.78;;;8.44;74.09
64388;BME280;50709;52.648;4.764;2023-02-14T04:22:48;103474.44;;;8.57;74.62
64388;BME280;50709;52.648;4.764;2023-02-14T04:25:16;103463.09;;;8.24;73.72
64388;BME280;50709;52.648;4.764;2023-02-14T04:27:41;103468.88;;;8.35;74.83
64388;BME280;50709;52.648;4.764;2023-02-14T04:30:08;103475.75;;;8.18;74.21
64388;BME280;50709;52.648;4.764;2023-02-14T04:32:34;103470.16;;;8.10;75.11
64388;BME280;50709;52.648;4.764;2023-02-14T04:34:59;103474.09;;;7.72;73.98
64388;BME280;50709;52.648;4.764;2023-02-14T04:37:25;103482.19;;;7.77;74.92
64388;BME280;50709;52.648;4.764;2023-02-14T04:39:50;103483.41;;;7.52;73.77
64388;BME280;50709;52.648;4.764;2023-02-14T04:42:16;103469.56;;;7.99;75.67
64388;BME280;50709;52.648;4.764;2023-02-14T04:44:41;103454.91;;;8.01;74.05
64388;BME280;50709;52.648;4.764;2023-02-14T04:47:07;103470.59;;;8.03;74.16
64388;BME280;50709;52.648;4.764;2023-02-14T04:49:33;103478.44;;;7.71;75.44
64388;BME280;50709;52.648;4.764;2023-02-14T04:51:59;103479.47;;;7.58;76.31
64388;BME280;50709;52.648;4.764;2023-02-14T04:54:24;103469.34;;;7.33;75.76
64388;BME280;50709;52.648;4.764;2023-02-14T04:56:50;103430.09;;;7.14;76.36
64388;BME280;50709;52.648;4.764;2023-02-14T04:59:15;103445.59;;;6.97;76.91
64388;BME280;50709;52.648;4.764;2023-02-14T05:01:41;103446.78;;;7.02;76.13
64388;BME280;50709;52.648;4.764;2023-02-14T05:04:07;103460.38;;;6.68;76.18
64388;BME280;50709;52.648;4.764;2023-02-14T05:06:32;103456.38;;;7.03;76.86
64388;BME280;50709;52.648;4.764;2023-02-14T05:08:58;103445.78;;;7.00;77.19
64388;BME280;50709;52.648;4.764;2023-02-14T05:11:24;103464.88;;;6.86;76.58
64388;BME280;50709;52.648;4.764;2023-02-14T05:13:49;103445.34;;;6.78;77.66
64388;BME280;50709;52.648;4.764;2023-02-14T05:16:15;103474.00;;;7.24;76.43
64388;BME280;50709;52.648;4.764;2023-02-14T05:18:40;103468.81;;;7.24;76.98
64388;BME280;50709;52.648;4.764;2023-02-14T05:21:06;103451.09;;;7.17;76.41
64388;BME280;50709;52.648;4.764;2023-02-14T05:23:31;103455.19;;;7.28;75.73
64388;BME280;50709;52.648;4.764;2023-02-14T05:25:57;103452.22;;;7.22;75.25
64388;BME280;50709;52.648;4.764;2023-02-14T05:28:22;103467.91;;;7.38;76.04
64388;BME280;50709;52.648;4.764;2023-02-14T05:30:49;103454.31;;;7.28;75.72
64388;BME280;50709;52.648;4.764;2023-02-14T05:33:15;103447.91;;;7.37;75.54
64388;BME280;50709;52.648;4.764;2023-02-14T05:35:41;103444.41;;;7.52;74.95
64388;BME280;50709;52.648;4.764;2023-02-14T05:38:06;103439.56;;;7.43;75.39
64388;BME280;50709;52.648;4.764;2023-02-14T05:40:32;103469.94;;;7.59;75.97
64388;BME280;50709;52.648;4.764;2023-02-14T05:42:57;103463.66;;;7.55;74.58
64388;BME280;50709;52.648;4.764;2023-02-14T05:45:23;103466.94;;;7.68;76.34
64388;BME280;50709;52.648;4.764;2023-02-14T05:47:49;103468.31;;;7.61;75.61
64388;BME280;50709;52.648;4.764;2023-02-14T05:50:15;103463.56;;;7.54;76.32
64388;BME280;50709;52.648;4.764;2023-02-14T05:52:41;103442.50;;;7.64;75.82
64388;BME280;50709;52.648;4.764;2023-02-14T05:55:07;103470.38;;;8.15;75.72
64388;BME280;50709;52.648;4.764;2023-02-14T05:57:33;103465.53;;;8.21;74.44
64388;BME280;50709;52.648;4.764;2023-02-14T05:59:58;103444.13;;;8.43;73.07
64388;BME280;50709;52.648;4.764;2023-02-14T06:02:24;103443.19;;;8.92;71.85
64388;BME280;50709;52.648;4.764;2023-02-14T06:04:49;103444.63;;;9.03;71.00
64388;BME280;50709;52.648;4.764;2023-02-14T06:07:15;103407.53;;;9.27;70.23
64388;BME280;50709;52.648;4.764;2023-02-14T06:09:41;103441.22;;;9.40;69.10
64388;BME280;50709;52.648;4.764;2023-02-14T06:12:06;103439.66;;;9.44;69.26
64388;BME280;50709;52.648;4.764;2023-02-14T06:14:32;103435.00;;;9.92;67.96
64388;BME280;50709;52.648;4.764;2023-02-14T06:16:57;103433.44;;;9.96;67.44
64388;BME280;50709;52.648;4.764;2023-02-14T06:19:22;103440.59;;;10.20;67.09
64388;BME280;50709;52.648;4.764;2023-02-14T06:21:48;103434.56;;;10.40;65.97
64388;BME280;50709;52.648;4.764;2023-02-14T06:24:13;103428.00;;;10.31;65.88
64388;BME280;50709;52.648;4.764;2023-02-14T06:26:39;103437.56;;;10.10;65.96
64388;BME280;50709;52.648;4.764;2023-02-14T06:29:04;103444.31;;;10.25;68.18
64388;BME280;50709;52.648;4.764;2023-02-14T06:31:30;103401.69;;;10.06;66.59
64388;BME280;50709;52.648;4.764;2023-02-14T06:33:55;103440.59;;;10.20;66.57
64388;BME280;50709;52.648;4.764;2023-02-14T06:36:21;103424.56;;;10.32;66.51
64388;BME280;50709;52.648;4.764;2023-02-14T06:38:47;103411.75;;;9.99;68.00
64388;BME280;50709;52.648;4.764;2023-02-14T06:41:13;103412.88;;;10.04;69.36
64388;BME280;50709;52.648;4.764;2023-02-14T06:43:42;103429.41;;;10.62;70.12
64388;BME280;50709;52.648;4.764;2023-02-14T06:46:07;103436.22;;;10.99;71.18
64388;BME280;50709;52.648;4.764;2023-02-14T06:48:33;103435.19;;;10.95;69.14
64388;BME280;50709;52.648;4.764;2023-02-14T06:50:58;103427.03;;;11.08;69.28
64388;BME280;50709;52.648;4.764;2023-02-14T06:53:24;103419.56;;;10.56;69.31
64388;BME280;50709;52.648;4.764;2023-02-14T06:55:50;103418.88;;;10.40;70.19
64388;BME280;50709;52.648;4.764;2023-02-14T06:58:15;103436.81;;;10.72;70.38
64388;BME280;50709;52.648;4.764;2023-02-14T07:00:40;103428.72;;;11.08;71.33
64388;BME280;50709;52.648;4.764;2023-02-14T07:03:06;103430.53;;;11.53;73.63
64388;BME280;50709;52.648;4.764;2023-02-14T07:05:32;103429.44;;;11.25;71.81
64388;BME280;50709;52.648;4.764;2023-02-14T07:07:58;103424.69;;;10.53;72.03
64388;BME280;50709;52.648;4.764;2023-02-14T07:10:23;103437.03;;;10.18;71.37
64388;BME280;50709;52.648;4.764;2023-02-14T07:12:49;103436.00;;;9.76;70.97
64388;BME280;50709;52.648;4.764;2023-02-14T07:15:15;103449.22;;;9.62;71.84
64388;BME280;50709;52.648;4.764;2023-02-14T07:17:40;103449.66;;;9.17;72.99
64388;BME280;50709;52.648;4.764;2023-02-14T07:20:07;103446.00;;;9.49;72.83
64388;BME280;50709;52.648;4.764;2023-02-14T07:22:33;103405.81;;;9.09;74.25
64388;BME280;50709;52.648;4.764;2023-02-14T07:24:59;103426.09;;;9.51;73.68
64388;BME280;50709;52.648;4.764;2023-02-14T07:27:24;103445.69;;;9.79;75.13
64388;BME280;50709;52.648;4.764;2023-02-14T07:29:50;103450.28;;;10.03;74.52
64388;BME280;50709;52.648;4.764;2023-02-14T07:32:15;103451.03;;;9.82;74.09
64388;BME280;50709;52.648;4.764;2023-02-14T07:34:40;103453.81;;;9.85;73.69
64388;BME280;50709;52.648;4.764;2023-02-14T07:37:06;103419.69;;;9.08;73.39
64388;BME280;50709;52.648;4.764;2023-02-14T07:39:31;103449.06;;;9.22;73.60
64388;BME280;50709;52.648;4.764;2023-02-14T07:41:57;103420.38;;;9.04;73.55
64388;BME280;50709;52.648;4.764;2023-02-14T07:44:22;103380.88;;;8.62;73.43
64388;BME280;50709;52.648;4.764;2023-02-14T07:46:47;103435.16;;;8.87;74.95
64388;BME280;50709;52.648;4.764;2023-02-14T07:49:13;103435.16;;;9.05;74.97
64388;BME280;50709;52.648;4.764;2023-02-14T07:51:38;103439.44;;;9.03;74.47
64388;BME280;50709;52.648;4.764;2023-02-14T07:54:04;103437.16;;;9.28;74.39
64388;BME280;50709;52.648;4.764;2023-02-14T07:56:29;103447.41;;;9.60;74.62
64388;BME280;50709;52.648;4.764;2023-02-14T07:58:54;103457.78;;;9.59;73.93
64388;BME280;50709;52.648;4.764;2023-02-14T08:01:20;103462.16;;;9.42;74.05
64388;BME280;50709;52.648;4.764;2023-02-14T08:03:46;103451.59;;;9.57;74.95
64388;BME280;50709;52.648;4.764;2023-02-14T08:06:15;103407.84;;;9.33;74.18
64388;BME280;50709;52.648;4.764;2023-02-14T08:08:40;103450.53;;;9.89;76.17
64388;BME280;50709;52.648;4.764;2023-02-14T08:11:05;103446.66;;;9.81;74.71
64388;BME280;50709;52.648;4.764;2023-02-14T08:13:31;103455.47;;;9.29;73.95
64388;BME280;50709;52.648;4.764;2023-02-14T08:15:56;103428.94;;;9.20;74.91
64388;BME280;50709;52.648;4.764;2023-02-14T08:18:40;103435.28;;;8.90;72.24
64388;BME280;50709;52.648;4.764;2023-02-14T08:21:07;103435.72;;;8.82;75.07
64388;BME280;50709;52.648;4.764;2023-02-14T08:23:34;103451.84;;;8.74;74.71
64388;BME280;50709;52.648;4.764;2023-02-14T08:25:59;103455.63;;;8.30;75.44
64388;BME280;50709;52.648;4.764;2023-02-14T08:28:25;103445.16;;;8.96;75.96
64388;BME280;50709;52.648;4.764;2023-02-14T08:30:51;103463.78;;;9.04;74.55
64388;BME280;50709;52.648;4.764;2023-02-14T08:33:17;103457.75;;;9.23;75.74
64388;BME280;50709;52.648;4.764;2023-02-14T08:35:43;103439.88;;;9.13;74.67
64388;BME280;50709;52.648;4.764;2023-02-14T08:38:08;103449.13;;;9.24;74.84
64388;BME280;50709;52.648;4.764;2023-02-14T08:40:34;103436.94;;;9.41;75.18
64388;BME280;50709;52.648;4.764;2023-02-14T08:43:01;103434.91;;;9.35;73.50
64388;BME280;50709;52.648;4.764;2023-02-14T08:45:27;103450.28;;;8.95;74.24
64388;BME280;50709;52.648;4.764;2023-02-14T08:47:52;103448.25;;;8.89;74.67
64388;BME280;50709;52.648;4.764;2023-02-14T08:50:18;103422.94;;;8.86;75.41
64388;BME280;50709;52.648;4.764;2023-02-14T08:52:44;103436.63;;;8.82;74.98
64388;BME280;50709;52.648;4.764;2023-02-14T08:55:10;103449.16;;;8.73;74.92
64388;BME280;50709;52.648;4.764;2023-02-14T08:57:36;103461.00;;;9.01;75.19
64388;BME280;50709;52.648;4.764;2023-02-14T09:00:03;103465.34;;;8.84;75.83
64388;BME280;50709;52.648;4.764;2023-02-14T09:02:28;103464.81;;;8.56;75.61
64388;BME280;50709;52.648;4.764;2023-02-14T09:04:54;103454.53;;;8.27;75.19
64388;BME280;50709;52.648;4.764;2023-02-14T09:07:19;103475.13;;;8.38;76.74
64388;BME280;50709;52.648;4.764;2023-02-14T09:09:44;103461.94;;;8.35;76.57
64388;BME280;50709;52.648;4.764;2023-02-14T09:12:10;103437.53;;;8.66;76.25
64388;BME280;50709;52.648;4.764;2023-02-14T09:14:41;103458.22;;;9.14;76.30
64388;BME280;50709;52.648;4.764;2023-02-14T09:17:14;103457.34;;;8.63;75.34
64388;BME280;50709;52.648;4.764;2023-02-14T09:19:39;103458.81;;;9.08;76.53
64388;BME280;50709;52.648;4.764;2023-02-14T09:22:08;103461.56;;;8.61;74.63
64388;BME280;50709;52.648;4.764;2023-02-14T09:24:35;103449.78;;;8.51;77.20
64388;BME280;50709;52.648;4.764;2023-02-14T09:27:02;103446.25;;;9.01;76.61
64388;BME280;50709;52.648;4.764;2023-02-14T09:29:28;103405.75;;;8.90;74.77
64388;BME280;50709;52.648;4.764;2023-02-14T09:31:54;103451.59;;;9.57;74.09
64388;BME280;50709;52.648;4.764;2023-02-14T09:34:20;103457.03;;;9.25;74.53
64388;BME280;50709;52.648;4.764;2023-02-14T09:37:04;103448.91;;;9.37;75.13
64388;BME280;50709;52.648;4.764;2023-02-14T09:39:48;103455.25;;;9.79;74.23
64388;BME280;50709;52.648;4.764;2023-02-14T09:45:08;103427.47;;;9.81;73.88
64388;BME280;50709;52.648;4.764;2023-02-14T09:47:36;103446.56;;;10.17;73.31
64388;BME280;50709;52.648;4.764;2023-02-14T09:50:14;103439.50;;;9.59;73.47
64388;BME280;50709;52.648;4.764;2023-02-14T09:52:45;103409.16;;;9.99;73.85
64388;BME280;50709;52.648;4.764;2023-02-14T09:55:15;103425.13;;;10.05;73.42
64388;BME280;50709;52.648;4.764;2023-02-14T10:00:37;103434.69;;;10.04;71.58
64388;BME280;50709;52.648;4.764;2023-02-14T10:06:20;103440.88;;;10.65;70.78
64388;BME280;50709;52.648;4.764;2023-02-14T10:11:24;103414.69;;;11.27;71.05
64388;BME280;50709;52.648;4.764;2023-02-14T10:14:04;103440.25;;;11.55;70.07
64388;BME280;50709;52.648;4.764;2023-02-14T10:16:38;103438.63;;;11.15;70.14
64388;BME280;50709;52.648;4.764;2023-02-14T10:19:07;103441.41;;;11.41;69.80
64388;BME280;50709;52.648;4.764;2023-02-14T10:24:27;103439.34;;;11.77;68.90
64388;BME280;50709;52.648;4.764;2023-02-14T10:27:00;103431.63;;;12.03;68.99
64388;BME280;50709;52.648;4.764;2023-02-14T10:29:27;103444.56;;;11.99;68.33
64388;BME280;50709;52.648;4.764;2023-02-14T10:31:58;103436.56;;;11.95;68.61
64388;BME280;50709;52.648;4.764;2023-02-14T10:34:34;103449.34;;;12.10;68.29
64388;BME280;50709;52.648;4.764;2023-02-14T10:42:38;103393.34;;;12.07;67.10
64388;BME280;50709;52.648;4.764;2023-02-14T10:45:17;103435.38;;;12.34;66.85
64388;BME280;50709;52.648;4.764;2023-02-14T10:53:02;103383.69;;;12.30;67.31
64388;BME280;50709;52.648;4.764;2023-02-14T10:55:48;103425.91;;;12.38;65.51
64388;BME280;50709;52.648;4.764;2023-02-14T10:58:18;103405.09;;;12.42;66.55
64388;BME280;50709;52.648;4.764;2023-02-14T11:00:59;103405.16;;;12.44;66.17
64388;BME280;50709;52.648;4.764;2023-02-14T11:03:27;103406.84;;;12.18;64.34
64388;BME280;50709;52.648;4.764;2023-02-14T11:05:53;103407.03;;;12.48;66.10
64388;BME280;50709;52.648;4.764;2023-02-14T11:10:53;103409.00;;;12.54;65.35
64388;BME280;50709;52.648;4.764;2023-02-14T11:13:34;103412.75;;;12.36;65.31
64388;BME280;50709;52.648;4.764;2023-02-14T11:16:03;103396.41;;;12.69;65.20
64388;BME280;50709;52.648;4.764;2023-02-14T11:18:29;103394.44;;;12.88;65.18
64388;BME280;50709;52.648;4.764;2023-02-14T11:21:12;103397.09;;;12.64;64.22
64388;BME280;50709;52.648;4.764;2023-02-14T11:23:46;103390.06;;;12.88;64.97
64388;BME280;50709;52.648;4.764;2023-02-14T11:26:21;103398.31;;;13.01;66.26
64388;BME280;50709;52.648;4.764;2023-02-14T11:29:02;103386.94;;;13.27;66.62
64388;BME280;50709;52.648;4.764;2023-02-14T11:31:35;103363.03;;;12.91;65.99
64388;BME280;50709;52.648;4.764;2023-02-14T11:34:04;103384.72;;;12.85;65.25
64388;BME280;50709;52.648;4.764;2023-02-14T11:36:31;103367.41;;;12.90;66.26
64388;BME280;50709;52.648;4.764;2023-02-14T11:39:27;103383.75;;;12.32;65.09
64388;BME280;50709;52.648;4.764;2023-02-14T11:41:56;103380.69;;;12.69;64.93
64388;BME280;50709;52.648;4.764;2023-02-14T11:44:27;103378.25;;;12.50;65.52
64388;BME280;50709;52.648;4.764;2023-02-14T11:46:55;103372.81;;;12.43;65.16
64388;BME280;50709;52.648;4.764;2023-02-14T11:49:39;103357.97;;;12.70;65.64
64388;BME280;50709;52.648;4.764;2023-02-14T11:52:16;103322.38;;;13.04;63.96
64388;BME280;50709;52.648;4.764;2023-02-14T11:54:46;103348.13;;;12.62;65.00
64388;BME280;50709;52.648;4.764;2023-02-14T11:57:32;103341.13;;;13.16;64.59
64388;BME280;50709;52.648;4.764;2023-02-14T12:00:00;103339.97;;;12.81;63.70
64388;BME280;50709;52.648;4.764;2023-02-14T12:02:38;103358.38;;;12.56;64.14
64388;BME280;50709;52.648;4.764;2023-02-14T12:05:06;103320.44;;;12.45;65.39
64388;BME280;50709;52.648;4.764;2023-02-14T12:07:42;103334.25;;;12.39;64.47
64388;BME280;50709;52.648;4.764;2023-02-14T12:17:49;103307.97;;;12.64;63.35
64388;BME280;50709;52.648;4.764;2023-02-14T12:20:25;103328.94;;;12.38;64.09
64388;BME280;50709;52.648;4.764;2023-02-14T12:23:04;103315.34;;;12.50;63.06
64388;BME280;50709;52.648;4.764;2023-02-14T12:29:36;103312.03;;;12.81;62.65
64388;BME280;50709;52.648;4.764;2023-02-14T12:32:20;103293.81;;;12.58;61.69
64388;BME280;50709;52.648;4.764;2023-02-14T12:34:46;103303.59;;;13.19;61.82
64388;BME280;50709;52.648;4.764;2023-02-14T12:42:47;103303.22;;;12.79;61.40
64388;BME280;50709;52.648;4.764;2023-02-14T12:45:29;103286.94;;;12.62;62.54
64388;BME280;50709;52.648;4.764;2023-02-14T13:01:37;103265.44;;;13.30;60.38
64388;BME280;50709;52.648;4.764;2023-02-14T13:06:50;103277.47;;;13.52;60.46
64388;BME280;50709;52.648;4.764;2023-02-14T13:12:23;103270.25;;;13.75;58.94
64388;BME280;50709;52.648;4.764;2023-02-14T13:15:03;103261.66;;;13.51;60.29
64388;BME280;50709;52.648;4.764;2023-02-14T13:17:41;103271.94;;;13.73;59.65
64388;BME280;50709;52.648;4.764;2023-02-14T13:22:47;103249.59;;;13.57;58.99
64388;BME280;50709;52.648;4.764;2023-02-14T13:25:36;103254.63;;;12.90;57.71
64388;BME280;50709;52.648;4.764;2023-02-14T13:28:10;103259.50;;;13.66;59.25
64388;BME280;50709;52.648;4.764;2023-02-14T13:30:36;103255.16;;;14.00;58.35
64388;BME280;50709;52.648;4.764;2023-02-14T13:33:23;103247.88;;;14.23;59.32
64388;BME280;50709;52.648;4.764;2023-02-14T13:35:51;103240.72;;;13.84;58.28
64388;BME280;50709;52.648;4.764;2023-02-14T13:38:19;103234.34;;;14.08;58.00
64388;BME280;50709;52.648;4.764;2023-02-14T13:40:45;103237.13;;;14.14;58.06
64388;BME280;50709;52.648;4.764;2023-02-14T13:43:11;103239.00;;;14.20;57.88
64388;BME280;50709;52.648;4.764;2023-02-14T13:48:16;103227.13;;;14.01;56.38
64388;BME280;50709;52.648;4.764;2023-02-14T13:51:22;103222.63;;;13.63;56.48
64388;BME280;50709;52.648;4.764;2023-02-14T13:54:20;103205.56;;;13.79;57.95
64388;BME280;50709;52.648;4.764;2023-02-14T13:56:46;103190.78;;;13.51;56.48
64388;BME280;50709;52.648;4.764;2023-02-14T13:59:26;103219.38;;;14.05;57.85
64388;BME280;50709;52.648;4.764;2023-02-14T14:01:52;103189.69;;;13.74;55.34
64388;BME280;50709;52.648;4.764;2023-02-14T14:22:54;103189.00;;;14.53;57.86
64388;BME280;50709;52.648;4.764;2023-02-14T14:25:36;103221.41;;;14.52;58.99
64388;BME280;50709;52.648;4.764;2023-02-14T14:28:12;103219.16;;;14.31;58.45
64388;BME280;50709;52.648;4.764;2023-02-14T14:30:43;103209.94;;;14.49;61.19
64388;BME280;50709;52.648;4.764;2023-02-14T14:35:58;103229.13;;;14.44;58.34
64388;BME280;50709;52.648;4.764;2023-02-14T14:38:25;103209.88;;;14.45;60.12
64388;BME280;50709;52.648;4.764;2023-02-14T14:40:51;103212.09;;;14.30;59.54
64388;BME280;50709;52.648;4.764;2023-02-14T14:43:29;103205.06;;;14.29;59.84
64388;BME280;50709;52.648;4.764;2023-02-14T14:45:57;103223.47;;;14.29;60.40
64388;BME280;50709;52.648;4.764;2023-02-14T14:50:51;103218.81;;;14.17;60.06
64388;BME280;50709;52.648;4.764;2023-02-14T14:53:42;103211.81;;;14.18;59.68
64388;BME280;50709;52.648;4.764;2023-02-14T14:56:16;103201.50;;;14.25;61.91
64388;BME280;50709;52.648;4.764;2023-02-14T14:58:43;103202.91;;;14.49;61.82
64388;BME280;50709;52.648;4.764;2023-02-14T15:01:27;103206.00;;;14.66;62.50
64388;BME280;50709;52.648;4.764;2023-02-14T15:03:53;103202.94;;;14.51;61.70
64388;BME280;50709;52.648;4.764;2023-02-14T15:06:20;103197.94;;;14.61;61.71
64388;BME280;50709;52.648;4.764;2023-02-14T15:08:46;103181.53;;;14.70;61.77
64388;BME280;50709;52.648;4.764;2023-02-14T15:11:20;103214.78;;;14.68;60.04
64388;BME280;50709;52.648;4.764;2023-02-14T15:14:09;103218.84;;;14.55;61.14
64388;BME280;50709;52.648;4.764;2023-02-14T15:16:43;103204.09;;;14.24;60.87